Time;durP1;ratioP1;P1;durP2;ratioP2;P2;SDS_P1;SDS_P2;PMS_P1;PMS_P2;Temp;Humidity;BMP_temperature;BMP_pressure;BME280_temperature;BME280_humidity;BME280_pressure;Samples;Min_cycle;Max_cycle;Signal;HPM_P1;HPM_P2
2023/12/25 00:00:45;;;;;;;14.15;1.75;;;12.40;99.90;;;;;;5077888;28;20032;-77
2023/12/25 00:03:10;;;;;;;5.43;0.10;;;12.30;99.90;;;;;;5077868;28;20019;-77
2023/12/25 00:05:36;;;;;;;9.63;1.40;;;12.30;99.90;;;;;;5077884;28;20071;-77
2023/12/25 00:08:01;;;;;;;7.82;0.95;;;12.20;99.90;;;;;;5077637;28;20020;-77
2023/12/25 00:10:27;;;;;;;8.32;0.55;;;12.10;99.90;;;;;;5077844;28;20073;-77
2023/12/25 00:12:52;;;;;;;19.05;3.38;;;12.20;99.90;;;;;;5060075;28;20016;-77
2023/12/25 00:15:18;;;;;;;12.00;0.43;;;12.10;99.90;;;;;;5059690;28;20024;-78
2023/12/25 00:17:43;;;;;;;6.93;1.08;;;12.10;99.90;;;;;;5077709;28;20021;-77
2023/12/25 00:20:10;;;;;;;7.95;0.75;;;12.00;99.90;;;;;;5078110;28;20016;-77
2023/12/25 00:22:36;;;;;;;6.75;0.52;;;12.10;99.90;;;;;;5077586;28;20016;-77
2023/12/25 00:25:01;;;;;;;8.07;0.10;;;12.00;99.90;;;;;;5078324;28;20063;-78
2023/12/25 00:27:30;;;;;;;9.00;0.10;;;12.00;99.90;;;;;;5078224;28;20024;-77
2023/12/25 00:29:55;;;;;;;6.20;1.38;;;12.10;99.90;;;;;;5078521;28;20035;-78
2023/12/25 00:32:21;;;;;;;7.18;0.43;;;13.20;99.90;;;;;;5060713;28;20020;-78
2023/12/25 00:34:47;;;;;;;5.07;0.40;;;12.00;99.90;;;;;;5060495;28;20460;-78
2023/12/25 00:37:12;;;;;;;6.45;0.43;;;12.00;99.90;;;;;;5059438;28;20028;-78
2023/12/25 00:39:38;;;;;;;5.97;0.13;;;12.00;99.90;;;;;;5059916;28;20027;-78
2023/12/25 00:42:04;;;;;;;3.78;0.00;;;12.00;99.90;;;;;;5059796;28;20017;-78
2023/12/25 00:44:29;;;;;;;6.50;0.17;;;12.00;99.90;;;;;;5077926;28;20024;-78
2023/12/25 00:46:55;;;;;;;7.07;0.40;;;12.00;99.90;;;;;;5059645;28;20094;-78
2023/12/25 00:49:20;;;;;;;5.35;0.40;;;11.90;99.90;;;;;;5059483;28;20111;-78
2023/12/25 00:51:47;;;;;;;9.55;0.75;;;11.90;99.90;;;;;;5059400;28;20032;-78
2023/12/25 00:54:13;;;;;;;9.98;0.32;;;11.90;99.90;;;;;;5076854;28;20028;-78
2023/12/25 00:56:38;;;;;;;13.88;0.88;;;11.90;99.90;;;;;;5058839;28;20069;-78
2023/12/25 00:59:04;;;;;;;6.55;0.80;;;11.90;99.90;;;;;;5058567;28;20030;-77
2023/12/25 01:01:30;;;;;;;9.65;0.68;;;;;;;;;;5076830;28;20024;-78
2023/12/25 01:03:55;;;;;;;5.32;0.57;;;11.90;99.90;;;;;;5059256;28;20212;-76
2023/12/25 01:06:21;;;;;;;15.70;1.20;;;11.90;99.90;;;;;;5075931;28;20020;-76
2023/12/25 01:08:47;;;;;;;9.82;1.25;;;11.90;99.90;;;;;;5058243;28;20025;-76
2023/12/25 01:11:14;;;;;;;8.32;0.63;;;11.90;99.90;;;;;;5075557;28;20095;-76
2023/12/25 01:13:40;;;;;;;11.65;0.75;;;12.00;99.90;;;;;;5075611;28;20024;-76
2023/12/25 01:16:05;;;;;;;6.22;0.20;;;12.00;99.90;;;;;;5057528;28;20116;-76
2023/12/25 01:18:31;;;;;;;15.23;0.65;;;12.00;99.90;;;;;;5075442;28;20021;-76
2023/12/25 01:20:56;;;;;;;15.20;0.98;;;12.20;99.90;;;;;;5057763;28;20024;-76
2023/12/25 01:23:22;;;;;;;13.23;0.80;;;12.00;99.90;;;;;;5057411;28;20025;-76
2023/12/25 01:25:47;;;;;;;10.65;0.30;;;12.00;99.90;;;;;;5075318;28;20020;-76
2023/12/25 01:28:13;;;;;;;8.50;1.27;;;12.40;99.90;;;;;;5075396;28;20495;-76
2023/12/25 01:30:39;;;;;;;9.40;0.52;;;12.10;99.90;;;;;;5057302;28;20032;-75
2023/12/25 01:33:04;;;;;;;6.35;0.60;;;12.10;99.90;;;;;;5057637;28;20040;-75
2023/12/25 01:35:30;;;;;;;7.00;0.95;;;12.00;99.90;;;;;;5075157;28;20039;-75
2023/12/25 01:37:55;;;;;;;5.18;0.52;;;12.10;99.90;;;;;;5057462;28;20032;-76
2023/12/25 01:40:21;;;;;;;7.03;0.60;;;12.90;99.90;;;;;;5075139;28;20012;-75
2023/12/25 01:42:47;;;;;;;5.65;0.30;;;12.40;99.90;;;;;;5056951;28;20478;-76
2023/12/25 01:45:13;;;;;;;8.02;0.75;;;12.00;99.90;;;;;;5057112;28;20028;-76
2023/12/25 01:47:39;;;;;;;3.40;0.35;;;12.10;99.90;;;;;;5075880;28;20024;-76
2023/12/25 01:50:06;;;;;;;3.28;0.20;;;12.10;99.90;;;;;;5058394;28;20020;-75
2023/12/25 01:52:32;;;;;;;3.50;0.40;;;12.10;99.90;;;;;;5057885;28;20391;-76
2023/12/25 01:54:59;;;;;;;3.15;0.20;;;12.10;99.90;;;;;;5075253;28;20020;-75
2023/12/25 01:57:26;;;;;;;5.53;0.63;;;12.10;99.90;;;;;;5075035;28;20020;-76
2023/12/25 01:59:51;;;;;;;4.57;0.20;;;12.10;99.90;;;;;;5057907;28;20533;-75
2023/12/25 02:02:20;;;;;;;1.42;0.00;;;12.00;99.90;;;;;;5075873;28;20028;-76
2023/12/25 02:04:46;;;;;;;;;;;12.00;99.90;;;;;;5076318;28;20395;-76
2023/12/25 02:07:12;;;;;;;3.65;0.08;;;12.00;99.90;;;;;;5075545;28;19905;-76
2023/12/25 02:09:38;;;;;;;6.40;0.20;;;11.90;99.90;;;;;;5076406;28;20024;-75
2023/12/25 02:12:04;;;;;;;3.38;0.10;;;11.90;99.90;;;;;;5057955;28;20438;-76
2023/12/25 02:14:30;;;;;;;7.95;0.75;;;11.80;99.90;;;;;;5076425;28;20028;-77
2023/12/25 02:16:56;;;;;;;10.73;2.25;;;11.80;99.90;;;;;;5057098;28;20020;-77
2023/12/25 02:19:37;;;;;;;7.50;1.17;;;11.80;99.90;;;;;;5076189;28;20356;-76
2023/12/25 02:22:03;;;;;;;7.18;0.80;;;11.80;99.90;;;;;;5075510;28;20020;-75
2023/12/25 02:24:31;;;;;;;12.27;0.52;;;11.80;99.90;;;;;;5056447;28;20068;-76
2023/12/25 02:26:56;;;;;;;6.45;0.77;;;11.80;99.90;;;;;;5074807;28;20024;-76
2023/12/25 02:29:22;;;;;;;11.23;0.30;;;11.80;99.90;;;;;;5074311;28;20070;-76
2023/12/25 02:31:48;;;;;;;7.47;0.20;;;11.80;99.90;;;;;;5074044;28;20533;-76
2023/12/25 02:34:14;;;;;;;7.03;0.20;;;11.80;99.90;;;;;;5056230;28;20029;-76
2023/12/25 02:36:40;;;;;;;7.20;0.20;;;11.70;99.90;;;;;;5075104;28;20059;-77
2023/12/25 02:39:06;;;;;;;10.52;0.63;;;12.40;99.90;;;;;;5074024;28;20060;-75
2023/12/25 02:41:31;;;;;;;16.42;1.40;;;13.00;99.90;;;;;;5055886;28;20084;-75
2023/12/25 02:43:57;;;;;;;16.58;1.85;;;11.70;99.90;;;;;;5074163;28;20496;-75
2023/12/25 02:46:23;;;;;;;9.52;0.50;;;11.70;99.90;;;;;;5074215;28;20020;-75
2023/12/25 02:48:48;;;;;;;17.08;0.60;;;11.70;99.90;;;;;;5055844;28;20480;-76
2023/12/25 02:51:14;;;;;;;11.82;0.47;;;11.70;99.90;;;;;;5074626;28;20430;-75
2023/12/25 02:53:39;;;;;;;16.65;1.48;;;11.70;99.90;;;;;;5055854;28;20056;-76
2023/12/25 02:56:05;;;;;;;12.60;0.77;;;11.80;99.90;;;;;;5074123;28;20070;-75
2023/12/25 02:58:31;;;;;;;9.32;1.38;;;11.80;99.90;;;;;;5055736;28;20035;-76
2023/12/25 03:00:56;;;;;;;10.13;0.77;;;11.80;99.90;;;;;;5074266;28;20107;-76
2023/12/25 03:03:22;;;;;;;14.90;0.57;;;11.80;99.90;;;;;;5074642;28;20029;-75
2023/12/25 03:05:47;;;;;;;9.68;0.10;;;11.80;99.90;;;;;;5056607;28;20021;-75
2023/12/25 03:08:13;;;;;;;10.75;0.63;;;11.80;99.90;;;;;;5075211;28;20447;-76
2023/12/25 03:10:39;;;;;;;15.25;0.65;;;11.80;99.90;;;;;;5075325;28;20028;-76
2023/12/25 03:13:05;;;;;;;10.48;1.08;;;11.80;99.90;;;;;;5057241;28;20023;-75
2023/12/25 03:15:31;;;;;;;17.33;1.70;;;11.80;99.90;;;;;;5056429;28;20016;-76
2023/12/25 03:17:57;;;;;;;15.90;1.65;;;11.80;99.90;;;;;;5056956;28;20032;-76
2023/12/25 03:20:22;;;;;;;11.07;0.40;;;11.80;99.90;;;;;;5075135;28;20511;-76
2023/12/25 03:22:48;;;;;;;12.40;0.82;;;11.90;99.90;;;;;;5074863;28;20028;-77
2023/12/25 03:25:14;;;;;;;12.68;1.02;;;11.80;99.90;;;;;;5057304;28;20054;-76
2023/12/25 03:27:39;;;;;;;3.70;0.90;;;11.90;99.90;;;;;;5057603;28;20471;-76
2023/12/25 03:30:06;;;;;;;17.65;0.50;;;11.80;99.90;;;;;;5056962;28;20074;-76
2023/12/25 03:32:33;;;;;;;9.98;0.47;;;11.90;99.90;;;;;;5075594;28;20051;-76
2023/12/25 03:34:59;;;;;;;13.32;1.17;;;11.90;99.90;;;;;;5078070;28;20444;-76
2023/12/25 03:37:25;;;;;;;11.50;0.22;;;11.90;99.90;;;;;;5079031;28;20063;-77
2023/12/25 03:39:51;;;;;;;7.65;0.63;;;11.90;99.90;;;;;;5078763;28;20093;-76
2023/12/25 03:42:16;;;;;;;8.60;0.20;;;11.90;99.90;;;;;;5060352;28;20024;-76
2023/12/25 03:44:42;;;;;;;9.73;0.68;;;12.00;99.90;;;;;;5060615;28;20017;-76
2023/12/25 03:47:07;;;;;;;14.73;1.52;;;11.90;99.90;;;;;;5078891;28;20020;-76
2023/12/25 03:49:33;;;;;;;8.55;0.65;;;12.00;99.90;;;;;;5078313;28;20518;-76
2023/12/25 03:51:58;;;;;;;12.20;1.20;;;12.00;99.90;;;;;;5078488;28;20499;-76
2023/12/25 03:54:24;;;;;;;10.30;0.73;;;12.00;99.90;;;;;;5077840;28;20040;-76
2023/12/25 03:56:50;;;;;;;10.82;0.30;;;12.00;99.90;;;;;;5078172;28;20073;-76
2023/12/25 03:59:15;;;;;;;6.15;0.17;;;12.00;99.90;;;;;;5078155;28;20028;-76
2023/12/25 04:01:41;;;;;;;10.38;0.38;;;12.00;99.90;;;;;;5060296;28;20028;-76
2023/12/25 04:04:06;;;;;;;8.55;0.25;;;12.00;99.90;;;;;;5078258;28;20141;-76
2023/12/25 04:06:32;;;;;;;11.13;0.55;;;12.00;99.90;;;;;;5060076;28;20032;-76
2023/12/25 04:08:58;;;;;;;11.00;1.40;;;12.00;99.90;;;;;;5077850;28;20032;-75
2023/12/25 04:11:24;;;;;;;11.77;0.28;;;12.00;99.90;;;;;;5077537;28;20056;-75
2023/12/25 04:13:53;;;;;;;11.10;0.25;;;12.10;99.90;;;;;;5078418;28;20028;-76
2023/12/25 04:16:26;;;;;;;6.40;0.75;;;12.00;99.90;;;;;;5078176;28;20488;-77
2023/12/25 04:18:53;;;;;;;5.97;0.45;;;12.00;99.90;;;;;;5078213;28;20106;-76
2023/12/25 04:21:25;;;;;;;13.32;1.35;;;12.90;99.90;;;;;;5078166;28;20023;-76
2023/12/25 04:23:51;;;;;;;8.00;0.43;;;12.00;99.90;;;;;;5059965;28;20070;-77
2023/12/25 04:26:18;;;;;;;12.27;0.52;;;12.00;99.90;;;;;;5059770;28;20029;-76
2023/12/25 04:28:44;;;;;;;14.80;1.15;;;12.00;99.90;;;;;;5077912;28;20024;-76
2023/12/25 04:31:10;;;;;;;11.75;1.42;;;12.00;99.90;;;;;;5077788;28;20029;-77
2023/12/25 04:33:36;;;;;;;14.63;1.65;;;12.00;99.90;;;;;;5078015;28;20040;-76
2023/12/25 04:36:03;;;;;;;5.50;1.23;;;12.00;99.90;;;;;;5059535;28;20082;-76
2023/12/25 04:38:28;;;;;;;11.52;1.15;;;12.10;99.90;;;;;;5077921;28;20537;-77
2023/12/25 04:40:54;;;;;;;9.20;0.55;;;12.00;99.90;;;;;;5059683;28;20013;-76
2023/12/25 04:43:19;;;;;;;10.70;1.02;;;13.40;99.90;;;;;;5076882;28;20024;-76
2023/12/25 04:45:45;;;;;;;14.18;0.93;;;11.90;99.90;;;;;;5059571;28;20040;-76
2023/12/25 04:48:11;;;;;;;10.15;1.45;;;12.00;99.90;;;;;;5077533;28;20013;-76
2023/12/25 04:50:37;;;;;;;11.90;0.25;;;12.00;99.90;;;;;;5077656;28;20039;-75
2023/12/25 04:53:03;;;;;;;11.25;0.60;;;12.00;99.90;;;;;;5059409;28;20106;-75
2023/12/25 04:55:29;;;;;;;8.75;0.40;;;12.00;99.90;;;;;;5058655;28;20025;-76
2023/12/25 04:57:54;;;;;;;8.55;0.50;;;12.00;99.90;;;;;;5076850;28;20094;-76
2023/12/25 05:00:20;;;;;;;5.75;0.20;;;12.50;99.90;;;;;;5077750;28;20025;-76
2023/12/25 05:02:46;;;;;;;6.80;0.30;;;13.10;99.90;;;;;;5059476;28;20078;-75
2023/12/25 05:05:12;;;;;;;10.25;0.95;;;12.00;99.90;;;;;;5077152;28;20017;-76
2023/12/25 05:07:37;;;;;;;4.80;0.30;;;12.00;99.90;;;;;;5059288;28;20016;-76
2023/12/25 05:10:03;;;;;;;9.48;0.70;;;12.00;99.90;;;;;;5058687;28;20021;-75
2023/12/25 05:12:29;;;;;;;4.35;0.43;;;12.00;99.90;;;;;;5057963;28;20020;-76
2023/12/25 05:14:54;;;;;;;12.90;1.23;;;12.00;99.90;;;;;;5076561;28;20046;-76
2023/12/25 05:17:20;;;;;;;8.40;0.50;;;12.00;99.90;;;;;;5076769;28;20021;-77
2023/12/25 05:19:45;;;;;;;10.48;0.75;;;12.40;99.90;;;;;;5058161;28;20040;-76
2023/12/25 05:22:12;;;;;;;15.05;1.60;;;12.00;99.90;;;;;;5076459;28;20028;-77
2023/12/25 05:24:37;;;;;;;10.93;1.00;;;12.00;99.90;;;;;;5076134;28;20013;-77
2023/12/25 05:27:03;;;;;;;6.32;0.00;;;12.00;99.90;;;;;;5076632;28;20031;-76
2023/12/25 05:29:29;;;;;;;14.25;1.45;;;12.00;99.90;;;;;;5076701;28;20021;-76
2023/12/25 05:31:54;;;;;;;8.32;0.43;;;12.00;99.90;;;;;;5075869;28;20086;-77
2023/12/25 05:34:20;;;;;;;7.40;0.65;;;12.00;99.90;;;;;;5059439;28;20031;-77
2023/12/25 05:36:45;;;;;;;9.15;0.47;;;12.00;99.90;;;;;;5078228;28;20020;-76
2023/12/25 05:39:11;;;;;;;5.82;0.20;;;12.80;99.90;;;;;;5059365;28;20029;-76
2023/12/25 05:41:36;;;;;;;5.90;0.55;;;12.00;99.90;;;;;;5075545;28;20025;-76
2023/12/25 05:44:02;;;;;;;4.55;0.70;;;12.00;99.90;;;;;;5075361;28;20042;-76
2023/12/25 05:46:28;;;;;;;10.93;0.17;;;11.90;99.90;;;;;;5057211;28;20021;-76
2023/12/25 05:48:53;;;;;;;5.25;0.65;;;12.00;99.90;;;;;;5075746;28;20028;-77
2023/12/25 05:51:20;;;;;;;8.43;0.80;;;;;;;;;;5075128;28;20016;-77
2023/12/25 05:53:45;;;;;;;3.25;0.30;;;12.00;99.90;;;;;;5075008;28;20039;-76
2023/12/25 05:56:11;;;;;;;11.35;0.65;;;11.90;99.90;;;;;;5074114;28;20092;-76
2023/12/25 05:58:36;;;;;;;6.25;0.40;;;11.90;99.90;;;;;;5075814;28;20082;-76
2023/12/25 06:01:02;;;;;;;2.15;0.10;;;11.90;99.90;;;;;;5056965;28;20028;-76
2023/12/25 06:03:29;;;;;;;4.90;0.00;;;11.90;99.90;;;;;;5074957;28;20090;-76
2023/12/25 06:05:54;;;;;;;5.88;0.00;;;11.90;99.90;;;;;;5074795;28;20012;-76
2023/12/25 06:08:20;;;;;;;2.33;0.13;;;11.90;99.90;;;;;;5056706;28;20576;-76
2023/12/25 06:10:47;;;;;;;8.68;0.32;;;13.60;99.90;;;;;;5074655;28;20419;-77
2023/12/25 06:13:12;;;;;;;2.78;0.00;;;12.60;99.90;;;;;;5074448;28;20048;-76
2023/12/25 06:15:38;;;;;;;3.13;0.00;;;11.90;99.90;;;;;;5074623;28;20055;-77
2023/12/25 06:18:04;;;;;;;3.03;0.00;;;12.70;99.90;;;;;;5076295;28;20025;-76
2023/12/25 06:20:30;;;;;;;4.47;0.00;;;;;;;;;;5056587;28;20016;-76
2023/12/25 06:22:56;;;;;;;1.75;0.10;;;;;;;;;;5074866;28;20021;-76
2023/12/25 06:25:22;;;;;;;3.85;0.00;;;11.80;99.90;;;;;;5074396;28;20024;-76
2023/12/25 06:27:48;;;;;;;2.00;0.08;;;11.80;99.90;;;;;;5056322;28;20027;-76
2023/12/25 06:30:13;;;;;;;3.30;0.00;;;11.80;99.90;;;;;;5074325;28;20020;-77
2023/12/25 06:32:42;;;;;;;1.40;0.00;;;11.70;99.90;;;;;;5074028;28;20027;-77
2023/12/25 06:35:07;;;;;;;1.55;0.00;;;11.70;99.90;;;;;;5074201;28;20027;-77
2023/12/25 06:37:33;;;;;;;4.05;0.00;;;11.70;99.90;;;;;;5074311;28;20020;-75
2023/12/25 06:39:59;;;;;;;3.42;0.00;;;11.70;99.90;;;;;;5056204;28;20454;-77
2023/12/25 06:42:25;;;;;;;6.72;0.25;;;11.60;99.90;;;;;;5073874;28;20469;-76
2023/12/25 06:44:50;;;;;;;2.85;0.35;;;11.60;99.90;;;;;;5074173;28;20032;-76
2023/12/25 06:47:16;;;;;;;3.60;0.00;;;11.60;99.90;;;;;;5073886;28;20024;-76
2023/12/25 06:49:42;;;;;;;3.45;0.00;;;11.60;99.90;;;;;;5074756;28;20032;-75
2023/12/25 06:52:08;;;;;;;1.85;0.00;;;11.60;99.90;;;;;;5074389;28;20103;-75
2023/12/25 06:54:34;;;;;;;1.60;0.00;;;11.60;99.90;;;;;;5056205;28;20036;-76
2023/12/25 06:56:59;;;;;;;4.30;0.35;;;11.50;99.90;;;;;;5074860;28;20021;-75
2023/12/25 06:59:25;;;;;;;3.85;0.57;;;11.50;99.90;;;;;;5056480;28;20034;-76
2023/12/25 07:01:54;;;;;;;4.35;0.17;;;11.60;99.90;;;;;;5075228;28;20020;-76
2023/12/25 07:04:20;;;;;;;1.13;0.00;;;11.50;99.90;;;;;;5074261;28;20365;-75
2023/12/25 07:06:45;;;;;;;6.18;0.52;;;11.50;99.90;;;;;;5073563;28;20096;-75
2023/12/25 07:09:14;;;;;;;3.28;0.57;;;11.40;99.90;;;;;;5056639;28;20016;-75
2023/12/25 07:11:40;;;;;;;;;;;11.40;99.90;;;;;;5075048;28;20074;-75
2023/12/25 07:14:06;;;;;;;3.53;0.20;;;11.40;99.90;;;;;;5055993;28;20309;-75
2023/12/25 07:16:31;;;;;;;4.20;0.00;;;11.40;99.90;;;;;;5073730;28;20028;-75
2023/12/25 07:18:57;;;;;;;1.00;0.13;;;11.40;99.90;;;;;;5074036;28;20028;-75
2023/12/25 07:21:22;;;;;;;6.75;0.55;;;11.30;99.90;;;;;;5074261;28;20095;-75
2023/12/25 07:23:48;;;;;;;6.53;0.35;;;11.30;99.90;;;;;;5073853;28;20025;-76
2023/12/25 07:26:16;;;;;;;5.22;0.05;;;11.20;99.90;;;;;;5073609;28;20503;-76
2023/12/25 07:28:42;;;;;;;1.55;0.00;;;11.30;99.90;;;;;;5073682;28;20049;-76
2023/12/25 07:31:07;;;;;;;6.57;0.10;;;11.20;99.90;;;;;;5074035;28;20021;-76
2023/12/25 07:33:34;;;;;;;5.95;0.20;;;11.30;99.90;;;;;;5073935;28;20024;-76
2023/12/25 07:36:01;;;;;;;8.80;1.45;;;11.20;99.90;;;;;;5073896;28;20071;-75
2023/12/25 07:38:26;;;;;;;2.17;0.10;;;11.20;99.90;;;;;;5055913;28;20032;-76
2023/12/25 07:40:52;;;;;;;3.42;0.00;;;11.10;99.90;;;;;;5073831;28;20024;-76
2023/12/25 07:43:17;;;;;;;2.08;0.45;;;11.10;99.90;;;;;;5073486;28;20024;-76
2023/12/25 07:45:53;;;;;;;3.50;0.10;;;11.10;99.90;;;;;;5073897;28;20488;-75
2023/12/25 07:48:19;;;;;;;2.55;0.00;;;11.00;99.90;;;;;;5056035;28;20112;-77
2023/12/25 07:50:44;;;;;;;3.67;0.10;;;12.90;99.90;;;;;;5056233;28;20056;-78
2023/12/25 07:53:10;;;;;;;6.93;0.68;;;11.00;99.90;;;;;;5074173;28;20028;-77
2023/12/25 07:55:38;;;;;;;4.45;0.40;;;11.00;99.90;;;;;;5056263;28;20028;-78
2023/12/25 07:58:04;;;;;;;3.25;0.32;;;11.90;99.90;;;;;;5056448;28;20078;-78
2023/12/25 08:00:29;;;;;;;3.20;0.00;;;11.00;99.90;;;;;;5055971;28;20016;-78
2023/12/25 08:02:55;;;;;;;2.42;0.03;;;11.10;99.90;;;;;;5074130;28;20017;-77
2023/12/25 08:05:21;;;;;;;2.42;0.05;;;11.00;99.90;;;;;;5055693;28;20036;-77
2023/12/25 08:07:47;;;;;;;5.47;0.52;;;11.10;99.90;;;;;;5073751;28;20491;-77
2023/12/25 08:10:13;;;;;;;4.57;0.00;;;11.00;99.90;;;;;;5056872;28;20019;-77
2023/12/25 08:12:42;;;;;;;3.20;0.00;;;11.10;99.90;;;;;;5073896;28;20023;-77
2023/12/25 08:15:10;;;;;;;3.13;0.00;;;11.10;99.90;;;;;;5073904;28;20024;-77
2023/12/25 08:17:35;;;;;;;6.13;0.38;;;11.10;99.90;;;;;;5056207;28;20052;-78
2023/12/25 08:20:01;;;;;;;3.22;0.47;;;11.10;99.90;;;;;;5058362;28;20060;-77
2023/12/25 08:22:26;;;;;;;6.55;0.50;;;11.10;99.90;;;;;;5059523;28;20032;-77
2023/12/25 08:24:53;;;;;;;4.50;0.00;;;11.10;99.90;;;;;;5077367;28;20090;-77
2023/12/25 08:27:18;;;;;;;2.33;0.10;;;11.10;99.90;;;;;;5059157;28;20024;-78
2023/12/25 08:29:44;;;;;;;4.38;0.08;;;11.10;99.90;;;;;;5058759;28;20028;-76
2023/12/25 08:32:10;;;;;;;1.55;0.00;;;12.10;99.90;;;;;;5058915;28;20028;-76
2023/12/25 08:34:38;;;;;;;7.30;0.30;;;11.10;99.90;;;;;;5059356;28;20538;-76
2023/12/25 08:37:03;;;;;;;4.20;0.00;;;11.10;99.90;;;;;;5077307;28;20087;-76
2023/12/25 08:39:29;;;;;;;2.45;0.00;;;11.10;99.90;;;;;;5058639;28;20529;-76
2023/12/25 08:41:56;;;;;;;2.42;0.00;;;11.10;99.90;;;;;;5077041;28;20020;-76
2023/12/25 08:44:23;;;;;;;6.95;0.10;;;11.10;99.90;;;;;;5076420;28;20514;-77
2023/12/25 08:46:49;;;;;;;3.85;0.40;;;11.20;99.90;;;;;;5077024;28;20027;-76
2023/12/25 08:49:14;;;;;;;5.60;0.17;;;11.00;99.90;;;;;;5058937;28;20032;-77
2023/12/25 08:51:40;;;;;;;5.68;0.22;;;11.10;99.90;;;;;;5076921;28;20027;-77
2023/12/25 08:54:07;;;;;;;3.40;0.00;;;11.10;99.90;;;;;;5059019;28;20115;-76
2023/12/25 08:56:33;;;;;;;3.08;0.00;;;11.00;99.90;;;;;;5076178;28;20021;-76
2023/12/25 08:59:00;;;;;;;1.30;0.00;;;11.10;99.90;;;;;;5061481;28;20070;-78
2023/12/25 09:01:26;;;;;;;2.38;0.08;;;11.10;99.90;;;;;;5069860;28;20488;-79
2023/12/25 09:03:52;;;;;;;7.15;0.00;;;11.10;99.90;;;;;;5072898;28;20013;-79
2023/12/25 09:06:18;;;;;;;1.38;0.00;;;;;;;;;;5084745;28;20020;-77
2023/12/25 09:08:45;;;;;;;3.10;0.10;;;11.10;99.90;;;;;;5058925;28;20025;-76
2023/12/25 09:11:14;;;;;;;1.00;0.10;;;11.20;99.90;;;;;;5058766;28;20051;-77
2023/12/25 09:13:40;;;;;;;5.63;0.00;;;11.20;99.90;;;;;;5077085;28;20368;-77
2023/12/25 09:16:05;;;;;;;1.52;0.45;;;11.20;99.90;;;;;;5058717;28;20123;-77
2023/12/25 09:18:31;;;;;;;3.45;0.00;;;11.20;99.90;;;;;;5058327;28;20031;-77
2023/12/25 09:20:57;;;;;;;0.93;0.00;;;13.10;99.90;;;;;;5060249;28;20025;-78
2023/12/25 09:23:23;;;;;;;2.05;0.00;;;11.30;99.90;;;;;;5077057;28;20021;-77
2023/12/25 09:25:49;;;;;;;0.13;0.00;;;11.30;99.90;;;;;;5059023;28;20364;-77
2023/12/25 09:28:15;;;;;;;5.88;0.00;;;11.30;99.90;;;;;;5076465;28;20067;-78
2023/12/25 09:30:41;;;;;;;5.97;0.00;;;11.40;99.90;;;;;;5077124;28;20062;-78
2023/12/25 09:33:07;;;;;;;2.25;0.30;;;11.40;99.90;;;;;;5057921;28;20021;-77
2023/12/25 09:35:32;;;;;;;4.10;0.00;;;11.50;99.90;;;;;;5076068;28;20150;-77
2023/12/25 09:37:58;;;;;;;1.85;0.00;;;11.50;99.90;;;;;;5058888;28;20491;-77
2023/12/25 09:40:24;;;;;;;1.30;0.20;;;11.50;99.90;;;;;;5075923;28;20115;-77
2023/12/25 09:42:50;;;;;;;1.50;0.00;;;11.50;99.90;;;;;;5075940;28;20407;-77
2023/12/25 09:45:17;;;;;;;2.03;0.00;;;11.50;99.90;;;;;;5076354;28;20454;-77
2023/12/25 09:47:45;;;;;;;3.15;0.00;;;11.50;99.90;;;;;;5076129;28;20361;-75
2023/12/25 09:50:11;;;;;;;4.50;0.00;;;11.50;99.90;;;;;;5075096;28;20021;-74
2023/12/25 09:52:36;;;;;;;13.15;0.45;;;11.50;99.90;;;;;;5075385;28;20031;-75
2023/12/25 09:55:02;;;;;;;0.70;0.08;;;11.50;99.90;;;;;;5075146;28;20021;-77
2023/12/25 09:57:30;;;;;;;1.17;0.00;;;11.60;99.90;;;;;;5058054;28;20103;-77
2023/12/25 09:59:56;;;;;;;2.42;0.10;;;11.60;99.90;;;;;;5057837;28;20032;-77
2023/12/25 10:02:23;;;;;;;2.05;0.00;;;11.90;99.90;;;;;;5076298;28;20059;-77
2023/12/25 10:04:52;;;;;;;1.60;0.00;;;11.70;99.90;;;;;;5075725;28;20108;-77
2023/12/25 10:07:21;;;;;;;0.57;0.00;;;12.10;99.90;;;;;;5057819;28;20048;-76
2023/12/25 10:09:49;;;;;;;2.60;0.00;;;11.70;99.90;;;;;;5058225;28;20115;-78
2023/12/25 10:12:14;;;;;;;0.67;0.00;;;11.70;99.90;;;;;;5057570;28;20438;-78
2023/12/25 10:14:40;;;;;;;5.00;0.85;;;11.70;99.90;;;;;;5058432;28;20311;-78
2023/12/25 10:17:05;;;;;;;1.23;0.00;;;11.70;99.90;;;;;;5076875;28;20052;-78
2023/12/25 10:19:31;;;;;;;1.58;0.00;;;11.70;99.90;;;;;;5075973;28;20476;-77
2023/12/25 10:21:56;;;;;;;2.03;0.00;;;11.70;99.90;;;;;;5076614;28;20017;-77
2023/12/25 10:24:29;;;;;;;0.20;0.00;;;11.80;99.90;;;;;;5076207;28;20024;-77
2023/12/25 10:26:57;;;;;;;5.05;0.30;;;11.70;99.90;;;;;;5059122;28;20013;-77
2023/12/25 10:29:35;;;;;;;1.60;0.13;;;11.70;99.90;;;;;;5057981;28;20111;-78
2023/12/25 10:32:16;;;;;;;2.25;0.63;;;11.80;99.90;;;;;;5076017;28;20017;-77
2023/12/25 10:34:42;;;;;;;3.25;0.55;;;11.80;99.90;;;;;;5075156;28;20052;-77
2023/12/25 10:37:08;;;;;;;4.32;0.30;;;11.80;99.90;;;;;;5075251;28;20075;-78
2023/12/25 10:39:33;;;;;;;3.47;0.00;;;11.80;99.90;;;;;;5076463;28;20028;-78
2023/12/25 10:42:01;;;;;;;6.13;0.10;;;11.80;99.90;;;;;;5076399;28;20024;-78
2023/12/25 10:44:27;;;;;;;0.65;0.00;;;11.90;99.90;;;;;;5058271;28;20487;-78
2023/12/25 10:46:53;;;;;;;4.47;0.73;;;11.80;99.90;;;;;;5060523;28;20017;-79
2023/12/25 10:49:20;;;;;;;1.55;0.00;;;11.90;99.90;;;;;;5078358;28;20134;-78
2023/12/25 10:51:49;;;;;;;3.10;0.35;;;11.90;99.90;;;;;;5060800;28;20388;-78
2023/12/25 10:54:16;;;;;;;3.85;0.22;;;12.00;99.90;;;;;;5060270;28;20021;-79
2023/12/25 10:56:43;;;;;;;0.17;0.00;;;12.00;99.90;;;;;;5078738;28;20084;-78
2023/12/25 10:59:16;;;;;;;3.03;0.00;;;12.00;99.90;;;;;;5079120;28;20475;-78
2023/12/25 11:01:48;;;;;;;3.25;0.00;;;12.70;99.90;;;;;;5074253;28;20028;-74
2023/12/25 11:04:18;;;;;;;1.02;0.00;;;12.20;99.90;;;;;;5073801;28;20020;-74
2023/12/25 11:06:47;;;;;;;1.98;0.13;;;12.20;99.90;;;;;;5074135;28;20448;-74
2023/12/25 11:09:22;;;;;;;0.82;0.00;;;12.20;99.90;;;;;;5055631;28;20030;-75
2023/12/25 11:11:48;;;;;;;3.40;0.00;;;12.20;99.90;;;;;;5074026;28;20028;-75
2023/12/25 11:14:14;;;;;;;1.40;0.00;;;12.20;99.90;;;;;;5073607;28;20029;-74
2023/12/25 11:16:40;;;;;;;1.65;0.00;;;12.20;99.90;;;;;;5073585;28;20089;-75
2023/12/25 11:19:06;;;;;;;2.85;0.20;;;12.20;99.90;;;;;;5055684;28;20024;-75
2023/12/25 11:21:33;;;;;;;2.45;0.00;;;12.20;99.90;;;;;;5055712;28;20091;-75
2023/12/25 11:24:00;;;;;;;3.13;0.43;;;12.20;99.90;;;;;;5073690;28;20096;-75
2023/12/25 11:26:29;;;;;;;0.93;0.00;;;12.30;99.90;;;;;;5073788;28;20540;-74
2023/12/25 11:29:00;;;;;;;2.15;0.00;;;12.50;99.90;;;;;;5074044;28;20028;-76
2023/12/25 11:31:28;;;;;;;1.83;0.00;;;12.30;99.90;;;;;;5055682;28;20158;-74
2023/12/25 11:34:13;;;;;;;1.83;0.00;;;12.30;99.90;;;;;;5055573;28;20025;-75
2023/12/25 11:36:39;;;;;;;3.47;0.17;;;12.30;99.90;;;;;;5073444;28;20033;-75
2023/12/25 11:39:09;;;;;;;1.38;0.00;;;12.40;99.90;;;;;;5055868;28;20031;-77
2023/12/25 11:41:37;;;;;;;1.67;0.00;;;12.40;99.90;;;;;;5073697;28;20080;-75
2023/12/25 11:44:06;;;;;;;1.33;0.20;;;12.40;99.90;;;;;;5073896;28;20024;-79
2023/12/25 11:46:35;;;;;;;0.00;0.00;;;12.40;99.90;;;;;;5073349;28;20028;-75
2023/12/25 11:49:01;;;;;;;2.30;0.00;;;12.40;99.90;;;;;;5055802;28;20023;-74
2023/12/25 11:51:29;;;;;;;1.63;0.00;;;12.40;99.90;;;;;;5055464;28;20021;-75
2023/12/25 11:54:01;;;;;;;0.88;0.05;;;12.40;99.90;;;;;;5056514;28;20029;-75
2023/12/25 11:56:28;;;;;;;4.30;0.68;;;12.50;99.90;;;;;;5077465;28;20033;-75
2023/12/25 11:58:54;;;;;;;1.27;0.15;;;12.60;99.90;;;;;;5059137;28;20020;-75
2023/12/25 12:01:20;;;;;;;2.92;0.10;;;12.70;99.90;;;;;;5077626;28;20028;-76
2023/12/25 12:03:47;;;;;;;3.35;0.15;;;12.60;99.90;;;;;;5059303;28;20066;-76
2023/12/25 12:06:14;;;;;;;0.93;0.00;;;12.60;99.90;;;;;;5077133;28;20024;-78
2023/12/25 12:08:40;;;;;;;1.13;0.00;;;12.50;99.90;;;;;;5059714;28;20487;-78
2023/12/25 12:11:06;;;;;;;3.33;0.30;;;12.40;99.90;;;;;;5078801;28;20144;-77
2023/12/25 12:13:33;;;;;;;1.88;0.05;;;12.40;99.90;;;;;;5077886;28;20053;-77
2023/12/25 12:15:59;;;;;;;3.00;0.00;;;12.40;99.90;;;;;;5060073;28;20021;-77
2023/12/25 12:18:26;;;;;;;2.65;0.00;;;12.30;99.90;;;;;;5059492;28;20028;-77
2023/12/25 12:20:53;;;;;;;0.90;0.08;;;12.30;99.90;;;;;;5078255;28;20021;-78
2023/12/25 12:23:19;;;;;;;0.60;0.00;;;12.30;99.90;;;;;;5078203;28;20035;-77
2023/12/25 12:25:46;;;;;;;1.55;0.00;;;12.30;99.90;;;;;;5061033;28;20016;-77
2023/12/25 12:28:18;;;;;;;0.85;0.00;;;12.40;99.90;;;;;;5059405;28;20044;-77
2023/12/25 12:30:43;;;;;;;1.88;0.00;;;12.40;99.90;;;;;;5078381;28;20020;-77
2023/12/25 12:33:10;;;;;;;1.73;0.13;;;12.90;99.90;;;;;;5059907;28;20032;-78
2023/12/25 12:35:36;;;;;;;1.75;0.22;;;12.50;99.90;;;;;;5068141;28;20035;-79
2023/12/25 12:38:04;;;;;;;2.55;0.05;;;12.50;99.90;;;;;;5082166;28;20029;-77
2023/12/25 12:40:30;;;;;;;4.20;0.05;;;12.50;99.90;;;;;;5059571;28;20115;-78
2023/12/25 12:42:56;;;;;;;2.20;0.45;;;12.50;99.90;;;;;;5060521;28;20498;-78